Time;durP1;ratioP1;P1;durP2;ratioP2;P2;SDS_P1;SDS_P2;PMS_P1;PMS_P2;Temp;Humidity;BMP_temperature;BMP_pressure;BME280_temperature;BME280_humidity;BME280_pressure;Samples;Min_cycle;Max_cycle;Signal;HPM_P1;HPM_P2
2022/10/02 00:00:42;;;;;;;2.90;1.50;;;;;;;18.22;100.00;101169.25;2081036;28;20930;-59
2022/10/02 00:01:49;;;;;;;1.97;1.40;;;;;;;18.16;100.00;101178.81;2085778;28;20453;-59
2022/10/02 00:03:01;;;;;;;3.80;1.13;;;;;;;18.17;100.00;101172.69;2084330;28;20438;-60
2022/10/02 00:04:05;;;;;;;2.67;1.50;;;;;;;18.11;100.00;101173.81;2085679;28;20935;-60
2022/10/02 00:05:14;;;;;;;2.93;1.00;;;;;;;18.12;100.00;101156.50;2088844;28;20438;-59
2022/10/02 00:06:22;;;;;;;4.43;1.00;;;;;;;18.13;100.00;101158.84;2088919;28;20444;-60
2022/10/02 00:07:33;;;;;;;4.30;1.20;;;;;;;18.04;100.00;101149.69;2083822;28;20440;-59
2022/10/02 00:08:40;;;;;;;4.27;1.00;;;;;;;18.13;100.00;101163.69;2085319;28;20468;-59
2022/10/02 00:09:48;;;;;;;5.23;1.20;;;;;;;18.08;100.00;101158.72;2084221;28;20494;-59
2022/10/02 00:10:56;;;;;;;5.50;1.40;;;;;;;18.08;100.00;101163.53;2080851;28;20444;-59
2022/10/02 00:11:58;;;;;;;3.23;1.20;;;;;;;18.08;100.00;101157.94;2089153;28;20814;-59
2022/10/02 00:13:06;;;;;;;2.63;1.17;;;;;;;17.77;100.00;101115.31;2093697;28;20466;-59
2022/10/02 00:14:12;;;;;;;4.80;1.20;;;;;;;18.09;100.00;101151.84;2088475;28;20486;-60
2022/10/02 00:15:16;;;;;;;6.37;1.50;;;;;;;18.13;100.00;101158.84;2086246;28;20548;-59
2022/10/02 00:16:40;;;;;;;5.37;1.40;;;;;;;18.13;100.00;101152.47;2082556;28;20442;-60
2022/10/02 00:17:43;;;;;;;3.73;1.30;;;;;;;18.14;100.00;101154.03;2088944;28;20938;-59
2022/10/02 00:18:45;;;;;;;2.30;0.97;;;;;;;18.09;100.00;101147.00;2088640;28;20824;-60
2022/10/02 00:19:46;;;;;;;3.73;1.17;;;;;;;18.13;100.00;101157.28;2086185;28;20414;-59
2022/10/02 00:21:11;;;;;;;5.37;1.20;;;;;;;18.17;100.00;101165.06;2080932;28;20412;-60
2022/10/02 00:22:34;;;;;;;3.73;1.27;;;;;;;18.15;100.00;101166.78;2087727;28;20547;-60
2022/10/02 00:23:45;;;;;;;2.60;1.13;;;;;;;18.17;100.00;101167.88;2089855;28;20464;-60
2022/10/02 00:24:49;;;;;;;3.37;0.90;;;;;;;18.23;100.00;101161.63;2083073;28;20430;-59
2022/10/02 00:26:06;;;;;;;3.10;1.40;;;;;;;18.22;100.00;101160.09;2087920;28;21002;-60
2022/10/02 00:27:28;;;;;;;7.60;1.37;;;;;;;18.22;100.00;101158.03;2087336;28;20451;-59
2022/10/02 00:28:43;;;;;;;4.10;1.10;;;;;;;18.19;100.00;101162.56;2088352;28;20432;-59
2022/10/02 00:29:53;;;;;;;6.33;0.93;;;;;;;18.09;100.00;101152.63;2082657;28;20494;-59
2022/10/02 00:31:15;;;;;;;3.07;1.00;;;;;;;18.17;100.00;101159.47;2080957;28;20431;-59
2022/10/02 00:32:38;;;;;;;2.53;1.20;;;;;;;18.17;100.00;101171.94;2081962;28;20408;-59
2022/10/02 00:33:53;;;;;;;4.03;1.03;;;;;;;18.16;100.00;101167.59;2088632;28;20446;-59
2022/10/02 00:35:12;;;;;;;4.47;1.00;;;;;;;18.08;100.00;101167.91;2088770;28;20499;-59
2022/10/02 00:36:42;;;;;;;1.57;0.70;;;;;;;18.08;100.00;101156.69;2083397;28;20433;-59
2022/10/02 00:38:09;;;;;;;2.47;0.80;;;;;;;18.07;100.00;101162.00;2080834;28;20496;-59
2022/10/02 00:39:18;;;;;;;2.97;0.93;;;;;;;18.03;100.00;101153.75;2080719;28;20432;-59
2022/10/02 00:40:31;;;;;;;2.13;0.70;;;;;;;18.05;100.00;101156.84;2086969;28;20419;-59
2022/10/02 00:42:10;;;;;;;3.53;0.80;;;;;;;18.07;100.00;101148.72;2081989;28;20778;-59
2022/10/02 00:43:50;;;;;;;3.57;1.00;;;;;;;18.02;100.00;101138.13;2088775;28;20423;-59
2022/10/02 00:45:13;;;;;;;1.87;0.80;;;;;;;18.00;100.00;101140.66;2081392;28;20399;-59
2022/10/02 00:46:31;;;;;;;1.90;0.70;;;;;;;17.97;100.00;101140.81;2091150;28;20415;-59
2022/10/02 00:47:42;;;;;;;3.10;0.80;;;;;;;17.98;100.00;101138.31;2092835;28;20421;-59
2022/10/02 00:49:13;;;;;;;4.20;0.93;;;;;;;17.94;100.00;101140.50;2088513;28;20441;-59
2022/10/02 00:50:16;;;;;;;2.50;0.90;;;;;;;17.84;100.00;101146.59;2088733;28;20505;-60
2022/10/02 00:51:41;;;;;;;6.37;1.03;;;;;;;17.88;100.00;101152.84;2082502;28;20449;-59
2022/10/02 00:53:09;;;;;;;3.47;0.83;;;;;;;17.86;100.00;101154.56;2080819;28;20404;-59
2022/10/02 00:54:13;;;;;;;3.33;0.80;;;;;;;17.75;100.00;101157.06;2081906;28;20420;-60
2022/10/02 00:55:25;;;;;;;2.10;0.90;;;;;;;17.78;100.00;101159.69;2087886;28;20496;-60
2022/10/02 00:56:50;;;;;;;2.93;0.90;;;;;;;17.77;100.00;101158.91;2083137;28;20411;-60
2022/10/02 00:58:07;;;;;;;4.10;0.87;;;;;;;17.73;100.00;101149.88;2089722;28;20799;-59
2022/10/02 00:59:27;;;;;;;5.17;0.80;;;;;;;17.83;100.00;101162.63;2080434;28;20435;-59
2022/10/02 01:00:27;;;;;;;1.20;0.87;;;;;;;17.76;100.00;101153.75;2086769;28;20927;-59
2022/10/02 01:01:40;;;;;;;3.33;0.80;;;;;;;17.75;100.00;101157.06;2093533;28;20878;-59
2022/10/02 01:03:07;;;;;;;2.53;0.90;;;;;;;17.70;100.00;101172.47;2086260;28;20223;-60
2022/10/02 01:04:14;;;;;;;2.37;1.10;;;;;;;17.65;100.00;101170.28;2088253;28;20442;-59
2022/10/02 01:05:15;;;;;;;4.70;0.90;;;;;;;17.68;100.00;101175.72;2083016;28;20981;-60
2022/10/02 01:06:15;;;;;;;4.07;0.80;;;;;;;17.53;100.00;101160.78;2095015;28;20470;-59
2022/10/02 01:07:16;;;;;;;3.80;0.90;;;;;;;17.71;100.00;101168.41;2092438;28;20204;-60
2022/10/02 01:08:16;;;;;;;7.30;1.00;;;;;;;17.77;100.00;101171.38;2086963;28;20334;-59
2022/10/02 01:09:17;;;;;;;2.37;1.00;;;;;;;17.71;100.00;101173.25;2083621;28;20196;-59
2022/10/02 01:10:18;;;;;;;2.80;1.00;;;;;;;17.66;100.00;101174.63;2089774;28;20699;-60
2022/10/02 01:11:20;;;;;;;4.43;0.80;;;;;;;17.64;100.00;101163.13;2082274;28;20237;-59
2022/10/02 01:12:22;;;;;;;2.73;0.80;;;;;;;17.65;100.00;101172.31;2090444;28;20560;-59
2022/10/02 01:13:23;;;;;;;2.87;0.90;;;;;;;17.62;100.00;101176.03;2090299;28;20494;-59
2022/10/02 01:14:34;;;;;;;3.47;0.70;;;;;;;17.59;100.00;101169.34;2083997;28;20958;-59
2022/10/02 01:15:43;;;;;;;2.37;0.77;;;;;;;17.60;100.00;101179.31;2088000;28;20916;-59
2022/10/02 01:16:44;;;;;;;3.23;1.20;;;;;;;17.61;100.00;101175.25;2089890;28;20505;-59
2022/10/02 01:17:55;;;;;;;4.07;0.90;;;;;;;17.57;100.00;101173.88;2090120;28;21124;-59
2022/10/02 01:18:55;;;;;;;2.80;0.83;;;;;;;17.63;100.00;101172.78;2090354;28;20841;-60
2022/10/02 01:20:00;;;;;;;2.30;0.70;;;;;;;17.61;100.00;101169.66;2090011;28;20439;-59
2022/10/02 01:21:11;;;;;;;3.23;0.80;;;;;;;17.56;100.00;101161.09;2086682;28;20296;-59
2022/10/02 01:22:37;;;;;;;1.77;0.70;;;;;;;17.51;100.00;101170.13;2086053;28;21009;-59
2022/10/02 01:23:52;;;;;;;2.67;0.73;;;;;;;17.50;100.00;101174.94;2090151;28;20438;-59
2022/10/02 01:24:55;;;;;;;2.00;0.90;;;;;;;17.51;100.00;101170.13;2083133;28;20465;-59
2022/10/02 01:25:57;;;;;;;2.00;0.70;;;;;;;17.48;100.00;101171.06;2082058;28;20435;-59
2022/10/02 01:26:57;;;;;;;3.47;0.63;;;;;;;17.48;100.00;101177.44;2086694;28;20447;-60
2022/10/02 01:27:58;;;;;;;3.47;0.80;;;;;;;17.52;100.00;101168.88;2089963;28;20426;-59
2022/10/02 01:28:59;;;;;;;3.37;0.77;;;;;;;17.50;100.00;101172.16;2087177;28;20211;-60
2022/10/02 01:30:14;;;;;;;1.33;0.63;;;;;;;17.49;100.00;101165.00;2083680;28;20215;-60
2022/10/02 01:31:16;;;;;;;2.63;0.70;;;;;;;17.05;100.00;101111.25;2084703;28;20845;-59
2022/10/02 01:32:17;;;;;;;2.57;0.77;;;;;;;17.44;100.00;101162.06;2091941;28;20415;-59
2022/10/02 01:33:18;;;;;;;2.53;0.60;;;;;;;17.38;100.00;101161.84;2096935;28;20444;-60
2022/10/02 01:34:19;;;;;;;1.43;0.70;;;;;;;17.35;100.00;101168.38;2081993;28;20631;-59
2022/10/02 01:35:23;;;;;;;1.73;0.60;;;;;;;17.32;100.00;101163.72;2089937;28;20837;-60
2022/10/02 01:36:24;;;;;;;1.77;0.80;;;;;;;17.31;100.00;101154.53;2090039;28;20900;-59
2022/10/02 01:37:29;;;;;;;2.20;0.80;;;;;;;17.39;100.00;101168.28;2089342;28;20432;-59
2022/10/02 01:38:30;;;;;;;2.33;0.60;;;;;;;17.41;100.00;101176.97;2089938;28;20223;-59
2022/10/02 01:39:31;;;;;;;6.47;0.83;;;;;;;17.47;100.00;101175.09;2089934;28;20864;-59
2022/10/02 01:40:34;;;;;;;2.90;0.90;;;;;;;17.47;100.00;101170.28;2088198;28;20444;-58
2022/10/02 01:41:42;;;;;;;1.53;0.73;;;;;;;17.42;100.00;101167.31;2089798;28;20418;-59
2022/10/02 01:42:42;;;;;;;1.40;0.80;;;;;;;17.49;100.00;101181.81;2090385;28;20918;-59
2022/10/02 01:44:01;;;;;;;1.33;0.70;;;;;;;17.52;100.00;101166.88;2088805;28;20865;-59
2022/10/02 01:45:06;;;;;;;2.70;0.80;;;;;;;17.46;100.00;101163.13;2081874;28;20240;-60
2022/10/02 01:46:25;;;;;;;3.33;0.80;;;;;;;17.46;100.00;101184.75;2081795;28;20401;-59
2022/10/02 01:47:42;;;;;;;3.20;0.67;;;;;;;17.22;100.00;101174.09;2088184;28;20447;-59
2022/10/02 01:49:04;;;;;;;2.63;0.80;;;;;;;17.41;100.00;101188.97;2089060;28;20862;-59
2022/10/02 01:50:22;;;;;;;2.13;0.60;;;;;;;17.37;100.00;101177.88;2088079;28;20465;-59
2022/10/02 01:51:50;;;;;;;2.07;0.60;;;;;;;17.33;100.00;101179.28;2090112;28;20504;-59
2022/10/02 01:53:07;;;;;;;1.90;0.60;;;;;;;17.30;100.00;101197.78;2089211;28;20863;-60
2022/10/02 01:54:32;;;;;;;1.63;0.63;;;;;;;17.27;100.00;101192.34;2083282;28;20400;-60
2022/10/02 01:55:39;;;;;;;2.20;0.67;;;;;;;17.36;100.00;101203.56;2089878;28;20445;-59
2022/10/02 01:57:15;;;;;;;4.03;0.90;;;;;;;17.37;100.00;101191.13;2085703;28;20452;-59
2022/10/02 01:58:29;;;;;;;0.60;0.60;;;;;;;17.35;100.00;101199.19;2079425;28;20556;-59
2022/10/02 02:00:02;;;;;;;3.67;0.63;;;;;;;17.24;100.00;101193.25;2081300;28;20530;-59
2022/10/02 02:01:29;;;;;;;1.47;0.70;;;;;;;17.27;100.00;101218.31;2081970;28;20416;-59
2022/10/02 02:02:40;;;;;;;2.30;0.60;;;;;;;17.25;100.00;101218.00;2081695;28;20440;-59
2022/10/02 02:03:53;;;;;;;1.47;0.60;;;;;;;17.22;100.00;101209.75;2086453;28;20606;-59
2022/10/02 02:05:01;;;;;;;2.53;0.73;;;;;;;17.25;100.00;101209.59;2090050;28;20477;-59
2022/10/02 02:06:14;;;;;;;2.57;0.70;;;;;;;17.20;100.00;101209.44;2089747;28;20451;-59
2022/10/02 02:07:14;;;;;;;1.87;0.70;;;;;;;17.21;100.00;101213.81;2083601;28;20493;-60
2022/10/02 02:08:33;;;;;;;2.07;0.70;;;;;;;17.22;100.00;101223.75;2085620;28;20447;-59
2022/10/02 02:10:01;;;;;;;2.20;0.90;;;;;;;17.23;100.00;101228.91;2094624;28;20246;-59
2022/10/02 02:11:11;;;;;;;2.47;0.77;;;;;;;17.27;100.00;101228.75;2094456;28;20408;-60
2022/10/02 02:12:20;;;;;;;2.53;0.70;;;;;;;16.90;100.00;101185.88;2082032;28;20428;-59
2022/10/02 02:13:34;;;;;;;4.40;0.90;;;;;;;17.25;100.00;101234.81;2081883;28;20413;-59
2022/10/02 02:14:41;;;;;;;2.43;0.60;;;;;;;17.26;100.00;101235.59;2081648;28;20983;-59
2022/10/02 02:15:58;;;;;;;1.07;0.60;;;;;;;17.24;100.00;101232.47;2081525;28;20494;-58
2022/10/02 02:17:11;;;;;;;3.30;1.23;;;;;;;17.26;100.00;101241.97;2081535;28;20398;-59
2022/10/02 02:18:23;;;;;;;2.57;0.70;;;;;;;17.29;100.00;101234.66;2089514;28;20414;-59
2022/10/02 02:19:30;;;;;;;2.27;0.90;;;;;;;17.12;100.00;101228.53;2089470;28;20969;-60
2022/10/02 02:20:37;;;;;;;5.07;1.00;;;;;;;17.26;100.00;101247.56;2089867;28;20421;-59
2022/10/02 02:21:52;;;;;;;1.10;0.80;;;;;;;17.12;100.00;101231.34;2090428;28;20776;-59
2022/10/02 02:22:57;;;;;;;2.83;1.00;;;;;;;17.14;100.00;101261.69;2095015;28;20397;-59
2022/10/02 02:24:01;;;;;;;3.23;0.90;;;;;;;17.20;100.00;101271.03;2088596;28;20848;-59
2022/10/02 02:25:29;;;;;;;3.07;0.80;;;;;;;17.25;100.00;101273.25;2090259;28;20509;-59
2022/10/02 02:26:31;;;;;;;2.63;1.07;;;;;;;17.21;100.00;101278.22;2091306;28;20513;-59
2022/10/02 02:27:44;;;;;;;3.50;1.10;;;;;;;17.17;100.00;101281.16;2091117;28;20836;-59
2022/10/02 02:28:52;;;;;;;3.67;1.10;;;;;;;17.22;100.00;101280.53;2095346;28;20444;-59
2022/10/02 02:29:59;;;;;;;2.13;1.00;;;;;;;17.21;100.00;101276.19;2089337;28;20486;-60
2022/10/02 02:31:01;;;;;;;2.47;1.00;;;;;;;17.25;100.00;101278.84;2089828;28;20413;-59
2022/10/02 02:32:07;;;;;;;2.30;0.90;;;;;;;17.30;100.00;101275.44;2088283;28;20412;-59
2022/10/02 02:33:17;;;;;;;3.00;1.13;;;;;;;17.02;100.00;101243.78;2083254;28;20400;-59
2022/10/02 02:34:22;;;;;;;3.33;1.10;;;;;;;17.26;100.00;101277.63;2095641;28;20413;-59
2022/10/02 02:35:26;;;;;;;2.50;1.00;;;;;;;17.26;100.00;101277.63;2081968;28;20411;-59
2022/10/02 02:36:34;;;;;;;2.30;1.10;;;;;;;16.68;100.00;101187.19;2089859;28;20413;-59
2022/10/02 02:37:39;;;;;;;4.00;1.13;;;;;;;17.29;100.00;101271.88;2081385;28;20408;-59
2022/10/02 02:38:47;;;;;;;2.60;1.40;;;;;;;16.85;100.00;101200.47;2081723;28;20848;-59
2022/10/02 02:40:11;;;;;;;2.83;1.10;;;;;;;17.32;100.00;101281.38;2081353;28;20443;-59
2022/10/02 02:41:15;;;;;;;4.13;1.57;;;;;;;17.33;100.00;101274.53;2087392;28;20418;-59
2022/10/02 02:42:21;;;;;;;4.90;1.47;;;;;;;17.29;100.00;101277.47;2081445;28;20814;-59
2022/10/02 02:43:38;;;;;;;2.53;1.27;;;;;;;17.26;100.00;101272.03;2081774;28;20408;-58
2022/10/02 02:44:48;;;;;;;3.03;1.40;;;;;;;16.79;100.00;101193.13;2081182;28;20412;-58
2022/10/02 02:46:08;;;;;;;3.77;1.40;;;;;;;17.31;100.00;101274.22;2082446;28;20500;-59
2022/10/02 02:47:15;;;;;;;4.53;1.53;;;;;;;17.17;100.00;101253.16;2086452;28;20405;-60
2022/10/02 02:48:28;;;;;;;1.83;1.40;;;;;;;17.33;100.00;101277.31;2089792;28;20469;-60
2022/10/02 02:49:56;;;;;;;2.83;1.60;;;;;;;17.37;100.00;101280.75;2091703;28;20460;-58
2022/10/02 02:51:02;;;;;;;1.90;1.50;;;;;;;17.36;100.00;101282.00;2092480;28;20532;-60
2022/10/02 02:52:09;;;;;;;4.23;1.70;;;;;;;17.35;100.00;101278.41;2092610;28;20426;-59
2022/10/02 02:53:58;;;;;;;2.70;1.77;;;;;;;17.33;100.00;101280.13;2094354;28;20538;-59
2022/10/02 02:55:14;;;;;;;5.10;2.00;;;;;;;17.34;100.00;101282.47;2078121;28;20446;-60
2022/10/02 02:56:18;;;;;;;5.70;1.90;;;;;;;17.37;100.00;101283.56;2083111;28;20538;-59
2022/10/02 02:57:34;;;;;;;2.80;1.80;;;;;;;17.33;100.00;101271.72;2088921;28;20411;-59
2022/10/02 02:58:53;;;;;;;6.23;1.80;;;;;;;17.46;100.00;101294.03;2089251;28;20494;-60
2022/10/02 02:59:57;;;;;;;3.23;2.03;;;;;;;17.49;100.00;101287.53;2092782;28;20817;-59
2022/10/02 03:00:58;;;;;;;4.27;2.13;;;;;;;17.45;100.00;101284.84;2092386;28;20477;-60
2022/10/02 03:01:58;;;;;;;2.53;2.07;;;;;;;17.44;100.00;101288.91;2082892;28;20427;-59
2022/10/02 03:02:59;;;;;;;3.30;2.23;;;;;;;17.42;100.00;101294.19;2089212;28;20180;-59
2022/10/02 03:04:00;;;;;;;4.00;2.47;;;;;;;17.40;100.00;101287.50;2081232;28;20175;-59
2022/10/02 03:05:00;;;;;;;6.07;2.40;;;;;;;17.02;100.00;101229.00;2089006;28;20576;-59
2022/10/02 03:06:25;;;;;;;2.93;2.07;;;;;;;17.43;100.00;101301.34;2089527;28;20709;-60
2022/10/02 03:07:25;;;;;;;6.10;2.50;;;;;;;17.49;100.00;101296.69;2080513;28;20244;-59
2022/10/02 03:08:30;;;;;;;4.27;2.20;;;;;;;17.51;100.00;101302.59;2088167;28;20456;-58
2022/10/02 03:09:32;;;;;;;6.87;2.40;;;;;;;17.46;100.00;101291.25;2089278;28;20208;-59
2022/10/02 03:11:08;;;;;;;3.93;2.53;;;;;;;17.47;100.00;101304.00;2089507;28;20453;-59
2022/10/02 03:12:41;;;;;;;4.73;2.47;;;;;;;17.52;100.00;101294.97;2089482;28;20378;-60
2022/10/02 03:14:00;;;;;;;4.47;2.50;;;;;;;17.52;100.00;101292.97;2079529;28;20868;-59
2022/10/02 03:15:20;;;;;;;5.77;2.57;;;;;;;17.52;100.00;101306.19;2084679;28;20441;-58
2022/10/02 03:16:35;;;;;;;4.27;2.50;;;;;;;17.46;100.00;101305.25;2087119;28;20435;-59
2022/10/02 03:18:00;;;;;;;3.53;2.93;;;;;;;17.44;100.00;101313.34;2082478;28;20443;-59
2022/10/02 03:19:12;;;;;;;4.53;2.90;;;;;;;17.36;100.00;101307.22;2080824;28;20422;-59
2022/10/02 03:20:48;;;;;;;5.00;3.07;;;;;;;17.40;100.00;101305.06;2080437;28;20422;-59
2022/10/02 03:22:10;;;;;;;5.17;3.23;;;;;;;17.40;100.00;101307.88;2084560;28;20446;-59
2022/10/02 03:23:20;;;;;;;6.43;2.77;;;;;;;17.44;100.00;101318.97;2084089;28;20415;-60
2022/10/02 03:24:28;;;;;;;4.50;2.97;;;;;;;17.41;100.00;101323.47;2086358;28;20442;-60
2022/10/02 03:25:41;;;;;;;7.07;2.83;;;;;;;17.44;100.00;101322.53;2089261;28;20923;-59
2022/10/02 03:27:15;;;;;;;3.77;2.77;;;;;;;17.40;100.00;101327.47;2082618;28;20541;-59
2022/10/02 03:28:40;;;;;;;2.90;2.60;;;;;;;17.46;100.00;101322.84;2080890;28;20442;-59
2022/10/02 03:29:58;;;;;;;6.03;2.90;;;;;;;17.45;100.00;101338.09;2080844;28;20495;-59
2022/10/02 03:30:59;;;;;;;2.80;2.50;;;;;;;17.48;100.00;101339.97;2088603;28;20796;-59
2022/10/02 03:32:02;;;;;;;3.33;2.70;;;;;;;17.44;100.00;101342.13;2088548;28;20994;-59
2022/10/02 03:33:04;;;;;;;3.90;2.47;;;;;;;17.32;100.00;101332.56;2088357;28;20501;-59
2022/10/02 03:34:05;;;;;;;3.67;2.73;;;;;;;17.38;100.00;101346.75;2081113;28;20415;-59
2022/10/02 03:35:12;;;;;;;3.43;3.10;;;;;;;17.40;100.00;101351.94;2089558;28;20433;-59
2022/10/02 03:36:15;;;;;;;3.67;2.67;;;;;;;17.39;100.00;101351.16;2089516;28;20171;-59
2022/10/02 03:37:17;;;;;;;3.90;2.70;;;;;;;17.46;100.00;101355.69;2080869;28;20420;-59
2022/10/02 03:38:18;;;;;;;4.73;2.83;;;;;;;17.52;100.00;101370.66;2087267;28;20529;-59
2022/10/02 03:39:18;;;;;;;4.53;2.67;;;;;;;17.55;100.00;101366.94;2089086;28;20435;-59
2022/10/02 03:40:23;;;;;;;4.07;2.50;;;;;;;17.58;100.00;101363.19;2084890;28;20950;-59
2022/10/02 03:41:23;;;;;;;4.30;2.50;;;;;;;17.56;100.00;101365.69;2088584;28;20192;-59
2022/10/02 03:42:26;;;;;;;4.13;2.30;;;;;;;17.57;100.00;101378.44;2092186;28;20578;-59
2022/10/02 03:43:29;;;;;;;3.70;2.57;;;;;;;17.51;100.00;101364.25;2082640;28;20230;-60
2022/10/02 03:44:29;;;;;;;4.53;2.70;;;;;;;17.48;100.00;101372.81;2087950;28;20930;-59
2022/10/02 03:45:30;;;;;;;3.60;2.87;;;;;;;17.39;100.00;101367.19;2081127;28;20833;-59
2022/10/02 03:46:30;;;;;;;4.07;2.73;;;;;;;17.48;100.00;101375.59;2096660;28;20215;-59
2022/10/02 03:47:31;;;;;;;3.57;2.50;;;;;;;17.53;100.00;101375.78;2083374;28;20203;-59
2022/10/02 03:48:32;;;;;;;5.40;2.83;;;;;;;17.50;100.00;101376.72;2086434;28;20195;-60
2022/10/02 03:49:32;;;;;;;4.67;2.60;;;;;;;17.53;100.00;101381.41;2088809;28;20384;-59
2022/10/02 03:50:33;;;;;;;3.90;2.40;;;;;;;17.49;100.00;101383.56;2085881;28;20188;-59
2022/10/02 03:51:33;;;;;;;3.40;2.50;;;;;;;17.56;100.00;101388.09;2083109;28;20563;-59
2022/10/02 03:52:34;;;;;;;3.33;2.30;;;;;;;17.55;100.00;101390.13;2087984;28;20204;-59
2022/10/02 03:53:35;;;;;;;5.43;2.80;;;;;;;17.52;100.00;101379.06;2081007;28;20181;-59
2022/10/02 03:54:36;;;;;;;4.63;2.73;;;;;;;17.25;100.00;101341.25;2089107;28;20510;-60
2022/10/02 03:55:44;;;;;;;3.73;2.50;;;;;;;17.50;100.00;101381.56;2089165;28;20673;-59
2022/10/02 03:56:56;;;;;;;5.77;2.47;;;;;;;17.50;100.00;101385.13;2088688;28;20234;-59
2022/10/02 03:57:57;;;;;;;4.97;2.70;;;;;;;17.21;100.00;101331.44;2088741;28;20423;-60
2022/10/02 03:59:01;;;;;;;5.00;2.80;;;;;;;17.50;100.00;101389.97;2082928;28;20445;-60
2022/10/02 04:00:25;;;;;;;3.10;2.80;;;;;;;17.45;100.00;101393.38;2080586;28;20421;-60
2022/10/02 04:01:38;;;;;;;5.93;2.60;;;;;;;17.31;100.00;101381.44;2080881;28;20448;-60
2022/10/02 04:03:01;;;;;;;3.03;2.63;;;;;;;17.45;100.00;101394.13;2097142;28;20437;-59
2022/10/02 04:04:16;;;;;;;3.27;2.63;;;;;;;17.40;100.00;101397.53;2080170;28;20442;-59
2022/10/02 04:05:41;;;;;;;3.33;2.50;;;;;;;17.39;100.00;101398.00;2080872;28;20405;-59
2022/10/02 04:06:49;;;;;;;3.60;2.50;;;;;;;17.31;100.00;101411.50;2083866;28;20438;-59
2022/10/02 04:07:56;;;;;;;4.70;2.80;;;;;;;16.92;100.00;101347.78;2085015;28;20416;-59
2022/10/02 04:09:09;;;;;;;4.13;2.60;;;;;;;17.28;100.00;101409.59;2092035;28;20499;-60
2022/10/02 04:10:12;;;;;;;3.20;2.60;;;;;;;17.26;100.00;101421.25;2093539;28;20420;-59
2022/10/02 04:11:19;;;;;;;3.77;2.60;;;;;;;17.26;100.00;101428.88;2088911;28;20501;-59
2022/10/02 04:12:30;;;;;;;4.67;2.40;;;;;;;17.24;100.00;101426.53;2086416;28;20437;-60
2022/10/02 04:13:39;;;;;;;4.53;2.30;;;;;;;17.26;100.00;101426.84;2080705;28;20428;-59
2022/10/02 04:14:47;;;;;;;4.33;2.60;;;;;;;17.23;100.00;101418.59;2080513;28;20442;-59
2022/10/02 04:16:16;;;;;;;4.33;2.60;;;;;;;17.20;100.00;101419.50;2083245;28;21013;-59
2022/10/02 04:17:25;;;;;;;3.77;2.20;;;;;;;17.19;100.00;101429.13;2088307;28;20975;-59
2022/10/02 04:18:35;;;;;;;2.17;1.87;;;;;;;17.18;100.00;101410.78;2087948;28;20446;-59
2022/10/02 04:19:42;;;;;;;2.60;1.93;;;;;;;17.15;100.00;101414.50;2086877;28;20441;-59
2022/10/02 04:20:51;;;;;;;3.20;1.67;;;;;;;17.19;100.00;101404.72;2086122;28;20507;-59
2022/10/02 04:22:01;;;;;;;3.80;1.57;;;;;;;17.18;100.00;101413.59;2088861;28;20431;-59
2022/10/02 04:23:41;;;;;;;3.30;1.50;;;;;;;17.16;100.00;101410.47;2089033;28;20939;-59
2022/10/02 04:24:56;;;;;;;2.83;1.60;;;;;;;17.18;100.00;101402.38;2080815;28;20799;-59
2022/10/02 04:26:06;;;;;;;2.83;1.60;;;;;;;17.14;100.00;101405.31;2087610;28;20411;-59
2022/10/02 04:27:17;;;;;;;3.77;1.50;;;;;;;17.19;100.00;101399.13;2081479;28;20431;-59
2022/10/02 04:28:40;;;;;;;2.37;1.70;;;;;;;17.22;100.00;101394.63;2088407;28;20414;-59
2022/10/02 04:29:49;;;;;;;2.73;1.60;;;;;;;17.19;100.00;101387.91;2088275;28;21015;-59
2022/10/02 04:30:54;;;;;;;1.70;1.30;;;;;;;16.78;100.00;101328.72;2085217;28;20423;-59
2022/10/02 04:32:13;;;;;;;2.33;1.50;;;;;;;17.26;100.00;101401.63;2083619;28;20451;-59
2022/10/02 04:33:17;;;;;;;2.47;1.60;;;;;;;17.26;100.00;101414.88;2093331;28;20453;-59
2022/10/02 04:34:18;;;;;;;2.07;1.30;;;;;;;17.27;100.00;101411.59;2092775;28;20942;-59
2022/10/02 04:35:18;;;;;;;2.93;1.40;;;;;;;17.28;100.00;101418.78;2088720;28;20421;-59
2022/10/02 04:36:33;;;;;;;1.37;1.13;;;;;;;17.34;100.00;101427.34;2087155;28;20682;-59
2022/10/02 04:38:01;;;;;;;5.43;1.73;;;;;;;17.30;100.00;101429.50;2080407;28;20170;-59
2022/10/02 04:39:35;;;;;;;2.40;1.30;;;;;;;17.32;100.00;101427.06;2089602;28;20960;-60
2022/10/02 04:40:50;;;;;;;7.87;1.40;;;;;;;17.29;100.00;101441.97;2085444;28;20477;-59
2022/10/02 04:42:09;;;;;;;1.27;1.10;;;;;;;17.30;100.00;101437.91;2094379;28;20953;-59
2022/10/02 04:43:38;;;;;;;2.70;0.90;;;;;;;17.31;100.00;101425.50;2083043;28;20946;-59
2022/10/02 04:44:54;;;;;;;2.83;1.13;;;;;;;17.26;100.00;101440.84;2080449;28;20518;-59
2022/10/02 04:46:02;;;;;;;3.93;1.03;;;;;;;17.25;100.00;101428.09;2095973;28;20429;-59
2022/10/02 04:47:15;;;;;;;2.20;0.77;;;;;;;17.33;100.00;101425.81;2086387;28;20927;-59
2022/10/02 04:48:50;;;;;;;5.83;0.93;;;;;;;17.35;100.00;101432.50;2078889;28;20542;-59
2022/10/02 04:50:02;;;;;;;0.87;0.70;;;;;;;17.34;100.00;101430.97;2088104;28;20427;-59
2022/10/02 04:51:11;;;;;;;1.33;0.80;;;;;;;17.30;100.00;101429.50;2087752;28;20656;-59
2022/10/02 04:52:45;;;;;;;0.87;0.60;;;;;;;17.30;100.00;101440.72;2082040;28;20506;-59
2022/10/02 04:53:51;;;;;;;2.03;0.53;;;;;;;17.39;100.00;101424.00;2080805;28;20419;-59
2022/10/02 04:55:10;;;;;;;1.17;0.70;;;;;;;17.40;100.00;101430.38;2080839;28;20521;-59
2022/10/02 04:56:35;;;;;;;0.93;0.73;;;;;;;17.43;100.00;101430.25;2080255;28;20492;-59
2022/10/02 04:58:03;;;;;;;0.97;0.60;;;;;;;17.39;100.00;101432.41;2082860;28;20462;-58
2022/10/02 04:59:24;;;;;;;1.03;0.70;;;;;;;17.32;100.00;101436.22;2093969;28;20441;-59
2022/10/02 05:00:32;;;;;;;0.93;0.70;;;;;;;17.34;100.00;101438.56;2089687;28;20442;-59
2022/10/02 05:01:53;;;;;;;3.00;0.70;;;;;;;17.35;100.00;101446.50;2081629;28;20463;-59
2022/10/02 05:03:03;;;;;;;1.87;0.90;;;;;;;17.29;100.00;101444.75;2080885;28;20857;-59
2022/10/02 05:04:25;;;;;;;1.40;0.70;;;;;;;17.29;100.00;101451.16;2080390;28;20435;-59
2022/10/02 05:05:50;;;;;;;1.10;0.70;;;;;;;17.36;100.00;101450.13;2080378;28;20425;-58
2022/10/02 05:07:12;;;;;;;1.30;0.63;;;;;;;17.34;100.00;101449.78;2083196;28;20433;-60
2022/10/02 05:08:15;;;;;;;0.83;0.50;;;;;;;17.39;100.00;101454.03;2088077;28;20443;-60
2022/10/02 05:09:36;;;;;;;3.13;0.80;;;;;;;17.38;100.00;101453.22;2088349;28;20757;-60
2022/10/02 05:10:58;;;;;;;1.13;0.60;;;;;;;17.34;100.00;101458.19;2082934;28;21056;-60
2022/10/02 05:12:42;;;;;;;1.83;0.70;;;;;;;17.28;100.00;101460.03;2080364;28;20443;-60
2022/10/02 05:14:10;;;;;;;0.47;0.47;;;;;;;17.26;100.00;101459.69;2088305;28;21032;-59
2022/10/02 05:15:21;;;;;;;2.77;0.60;;;;;;;17.26;100.00;101451.31;2092891;28;20477;-59
2022/10/02 05:16:24;;;;;;;1.57;0.60;;;;;;;17.21;100.00;101457.50;2088618;28;20447;-59
2022/10/02 05:17:50;;;;;;;1.37;0.57;;;;;;;17.25;100.00;101452.50;2088036;28;20441;-59
2022/10/02 05:19:28;;;;;;;0.50;0.30;;;;;;;17.15;100.00;101450.91;2096408;28;20449;-59
2022/10/02 05:21:05;;;;;;;0.63;0.40;;;;;;;17.15;100.00;101464.91;2084371;28;20421;-59
2022/10/02 05:22:50;;;;;;;2.93;0.60;;;;;;;17.11;100.00;101467.84;2090796;28;20493;-59
2022/10/02 05:24:09;;;;;;;1.47;0.40;;;;;;;17.07;100.00;101461.59;2085658;28;20812;-59
2022/10/02 05:25:50;;;;;;;0.97;0.40;;;;;;;17.06;100.00;101464.88;2087456;28;20416;-59
2022/10/02 05:27:21;;;;;;;3.70;0.50;;;;;;;16.42;100.00;101378.09;2086782;28;20450;-60
2022/10/02 05:28:58;;;;;;;3.53;0.40;;;;;;;17.03;100.00;101477.75;2087269;28;20411;-59
2022/10/02 05:30:13;;;;;;;5.97;0.80;;;;;;;17.07;100.00;101500.78;2080396;28;20550;-59
2022/10/02 05:31:27;;;;;;;2.07;0.40;;;;;;;17.12;100.00;101493.84;2080493;28;20451;-59
2022/10/02 05:32:30;;;;;;;4.77;0.70;;;;;;;17.08;100.00;101485.56;2086468;28;20794;-59
2022/10/02 05:33:45;;;;;;;0.77;0.40;;;;;;;17.09;100.00;101498.34;2083184;28;20459;-59